createdAt,value
2017-02-15T00:00:03.970Z,0
2017-02-15T00:01:04.345Z,0
2017-02-15T00:02:03.609Z,0
2017-02-15T00:03:04.304Z,0
2017-02-15T00:04:04.309Z,0
2017-02-15T00:05:03.926Z,0
2017-02-15T00:06:04.372Z,0
2017-02-15T00:07:03.933Z,0
2017-02-15T00:08:04.337Z,0
2017-02-15T00:09:04.349Z,0
2017-02-15T00:10:04.004Z,0
2017-02-15T00:11:04.655Z,0
2017-02-15T00:12:04.039Z,0
2017-02-15T00:13:04.422Z,0
2017-02-15T00:14:04.433Z,0
2017-02-15T00:15:04.433Z,0
2017-02-15T00:16:03.649Z,0
2017-02-15T00:17:04.397Z,0
2017-02-15T00:18:03.606Z,0
2017-02-15T00:19:03.609Z,0
2017-02-15T00:20:04.012Z,0
2017-02-15T00:21:04.459Z,0
2017-02-15T00:22:04.037Z,0
2017-02-15T00:23:04.508Z,0
2017-02-15T00:24:04.061Z,0
2017-02-15T00:25:04.484Z,0
2017-02-15T00:26:04.444Z,0
2017-02-15T00:27:04.150Z,0
2017-02-15T00:28:04.111Z,0
2017-02-15T00:29:04.467Z,0
2017-02-15T00:30:04.465Z,0
2017-02-15T00:31:04.128Z,0
2017-02-15T00:32:04.153Z,0
2017-02-15T00:33:04.095Z,0
2017-02-15T00:34:04.541Z,0
2017-02-15T00:35:04.150Z,0
2017-02-15T00:36:04.525Z,0
2017-02-15T00:37:04.604Z,0
2017-02-15T00:38:04.535Z,0
2017-02-15T00:39:04.170Z,0
2017-02-15T00:40:04.680Z,0
2017-02-15T00:41:04.539Z,0
2017-02-15T00:42:04.157Z,0
2017-02-15T00:43:04.600Z,0
2017-02-15T00:44:04.554Z,0
2017-02-15T00:45:04.598Z,0
2017-02-15T00:46:04.868Z,0
2017-02-15T00:47:03.844Z,0
2017-02-15T00:48:04.729Z,0
2017-02-15T00:49:04.582Z,0
2017-02-15T00:50:04.239Z,0
2017-02-15T00:51:04.681Z,0
2017-02-15T00:52:04.199Z,0
2017-02-15T00:53:04.596Z,0
2017-02-15T00:54:04.256Z,0
2017-02-15T00:55:04.667Z,0
2017-02-15T00:56:04.674Z,0
2017-02-15T00:57:04.624Z,0
2017-02-15T00:58:04.627Z,0
2017-02-15T00:59:03.837Z,0
2017-02-15T01:00:04.648Z,0
2017-02-15T01:01:04.256Z,0
2017-02-15T01:02:04.652Z,0
2017-02-15T01:03:04.318Z,0
2017-02-15T01:04:04.717Z,0
2017-02-15T01:05:04.718Z,0
2017-02-15T01:06:04.685Z,0
2017-02-15T01:07:04.679Z,0
2017-02-15T01:08:03.942Z,0
2017-02-15T01:09:04.298Z,0
2017-02-15T01:10:03.965Z,0
2017-02-15T01:11:03.924Z,0
2017-02-15T01:12:04.365Z,0
2017-02-15T01:13:04.786Z,0
2017-02-15T01:14:04.730Z,0
2017-02-15T01:15:04.488Z,0
2017-02-15T01:16:04.737Z,0
2017-02-15T01:17:04.413Z,0
2017-02-15T01:18:04.780Z,0
2017-02-15T01:19:04.748Z,0
2017-02-15T01:20:03.984Z,0
2017-02-15T01:21:04.833Z,0
2017-02-15T01:22:04.766Z,0
2017-02-15T01:23:04.426Z,0
2017-02-15T01:24:04.835Z,0
2017-02-15T01:25:04.806Z,0
2017-02-15T01:26:04.411Z,0
2017-02-15T01:27:04.849Z,0
2017-02-15T01:28:04.075Z,0
2017-02-15T01:29:04.025Z,0
2017-02-15T01:30:04.819Z,0
2017-02-15T01:31:04.433Z,0
2017-02-15T01:32:04.876Z,0
2017-02-15T01:33:04.607Z,0
2017-02-15T01:34:04.896Z,0
2017-02-15T01:35:04.855Z,0
2017-02-15T01:36:04.869Z,0
2017-02-15T01:37:04.864Z,0
2017-02-15T01:38:04.514Z,0
2017-02-15T01:39:04.937Z,0
2017-02-15T01:40:04.480Z,0
2017-02-15T01:41:04.490Z,0
2017-02-15T01:42:04.899Z,0
2017-02-15T01:43:04.994Z,0
2017-02-15T01:44:04.912Z,0
2017-02-15T01:45:04.567Z,0
2017-02-15T01:46:04.530Z,0
2017-02-15T01:47:04.917Z,0
2017-02-15T01:48:04.926Z,0
2017-02-15T01:49:04.943Z,0
2017-02-15T01:50:04.975Z,0
2017-02-15T01:51:04.569Z,0
2017-02-15T01:52:05.051Z,0
2017-02-15T01:53:05.012Z,0
2017-02-15T01:54:04.964Z,0
2017-02-15T01:55:04.965Z,0
2017-02-15T01:56:04.986Z,0
2017-02-15T01:57:04.991Z,0
2017-02-15T01:58:05.037Z,0
2017-02-15T01:59:05.020Z,0
2017-02-15T02:00:05.052Z,0
2017-02-15T02:01:05.073Z,0
2017-02-15T02:02:04.635Z,0
2017-02-15T02:03:05.022Z,0
2017-02-15T02:04:05.107Z,0
2017-02-15T02:05:05.034Z,0
2017-02-15T02:06:05.076Z,0
2017-02-15T02:07:05.050Z,0
2017-02-15T02:08:05.050Z,0
2017-02-15T02:09:05.042Z,0
2017-02-15T02:10:04.703Z,0
2017-02-15T02:11:04.742Z,0
2017-02-15T02:12:05.067Z,0
2017-02-15T02:13:05.071Z,0
2017-02-15T02:14:05.096Z,0
2017-02-15T02:15:05.143Z,0
2017-02-15T02:16:05.151Z,0
2017-02-15T02:17:05.143Z,0
2017-02-15T02:18:04.705Z,0
2017-02-15T02:19:04.820Z,0
2017-02-15T02:20:04.731Z,0
2017-02-15T02:21:04.722Z,0
2017-02-15T02:22:05.179Z,0
2017-02-15T02:23:04.732Z,0
2017-02-15T02:24:05.247Z,0
2017-02-15T02:25:05.193Z,0
2017-02-15T02:26:05.196Z,0
2017-02-15T02:27:04.754Z,0
2017-02-15T02:28:05.206Z,0
2017-02-15T02:29:05.180Z,0
2017-02-15T02:30:05.273Z,0
2017-02-15T02:31:05.177Z,0
2017-02-15T02:32:04.452Z,0
2017-02-15T02:33:05.240Z,0
2017-02-15T02:34:05.201Z,0
2017-02-15T02:35:04.828Z,0
2017-02-15T02:36:05.209Z,0
2017-02-15T02:37:04.810Z,0
2017-02-15T02:38:05.221Z,0
2017-02-15T02:39:04.833Z,0
2017-02-15T02:40:05.332Z,0
2017-02-15T02:41:04.910Z,0
2017-02-15T02:42:04.853Z,0
2017-02-15T02:43:05.238Z,0
2017-02-15T02:44:05.313Z,0
2017-02-15T02:45:05.282Z,0
2017-02-15T02:46:05.350Z,0
2017-02-15T02:47:05.285Z,0
2017-02-15T02:48:05.270Z,0
2017-02-15T02:49:05.381Z,0
2017-02-15T02:50:05.342Z,0
2017-02-15T02:51:05.293Z,0
2017-02-15T02:52:05.060Z,0
2017-02-15T02:53:05.356Z,0
2017-02-15T02:54:05.364Z,0
2017-02-15T02:55:05.313Z,0
2017-02-15T02:56:05.336Z,0
2017-02-15T02:57:04.935Z,0
2017-02-15T02:58:05.388Z,0
2017-02-15T02:59:05.336Z,0
2017-02-15T03:00:04.960Z,0
2017-02-15T03:01:05.401Z,0
2017-02-15T03:02:05.064Z,0
2017-02-15T03:03:05.361Z,0
2017-02-15T03:04:05.381Z,0
2017-02-15T03:05:05.671Z,0
2017-02-15T03:06:05.457Z,0
2017-02-15T03:07:05.519Z,0
2017-02-15T03:08:05.454Z,0
2017-02-15T03:09:05.423Z,0
2017-02-15T03:10:04.615Z,0
2017-02-15T03:11:05.040Z,0
2017-02-15T03:12:05.465Z,0
2017-02-15T03:13:05.478Z,0
2017-02-15T03:14:19.904Z,0
2017-02-15T03:15:05.449Z,0
2017-02-15T03:16:05.507Z,0
2017-02-15T03:17:05.558Z,0
2017-02-15T03:18:05.512Z,0
2017-02-15T03:19:04.765Z,0
2017-02-15T03:20:05.466Z,0
2017-02-15T03:21:05.066Z,0
2017-02-15T03:22:05.477Z,0
2017-02-15T03:23:05.490Z,0
2017-02-15T03:24:05.166Z,0
2017-02-15T03:25:05.490Z,0
2017-02-15T03:26:05.131Z,0
2017-02-15T03:27:05.175Z,0
2017-02-15T03:28:05.161Z,0
2017-02-15T03:29:05.172Z,0
2017-02-15T03:30:05.784Z,0
2017-02-15T03:31:05.824Z,0
2017-02-15T03:32:05.588Z,0
2017-02-15T03:33:05.549Z,0
2017-02-15T03:34:05.642Z,0
2017-02-15T03:35:05.559Z,0
2017-02-15T03:36:05.555Z,0
2017-02-15T03:37:05.563Z,0
2017-02-15T03:38:05.616Z,0
2017-02-15T03:39:05.615Z,0
2017-02-15T03:40:05.234Z,0
2017-02-15T03:41:05.270Z,0
2017-02-15T03:42:05.603Z,0
2017-02-15T03:43:05.597Z,0
2017-02-15T03:44:05.278Z,0
2017-02-15T03:45:05.215Z,0
2017-02-15T03:46:04.892Z,0
2017-02-15T03:47:04.877Z,0
2017-02-15T03:48:05.253Z,0
2017-02-15T03:49:05.683Z,0
2017-02-15T03:50:05.746Z,0
2017-02-15T03:51:05.650Z,0
2017-02-15T03:52:05.454Z,0
2017-02-15T03:53:05.679Z,0
2017-02-15T03:54:06.114Z,0
2017-02-15T03:55:04.900Z,0
2017-02-15T03:56:05.769Z,0
2017-02-15T03:57:05.685Z,0
2017-02-15T03:58:05.335Z,0
2017-02-15T03:59:05.700Z,0
2017-02-15T04:00:04.909Z,0
2017-02-15T04:01:05.305Z,0
2017-02-15T04:02:05.335Z,0
2017-02-15T04:03:05.379Z,0
2017-02-15T04:04:05.375Z,0
2017-02-15T04:05:05.797Z,0
2017-02-15T04:06:04.952Z,0
2017-02-15T04:07:05.767Z,0
2017-02-15T04:08:05.790Z,0
2017-02-15T04:09:05.804Z,0
2017-02-15T04:10:05.827Z,0
2017-02-15T04:11:05.775Z,0
2017-02-15T04:12:05.370Z,0
2017-02-15T04:13:05.775Z,0
2017-02-15T04:14:05.380Z,0
2017-02-15T04:15:05.789Z,0
2017-02-15T04:16:05.837Z,0
2017-02-15T04:17:05.900Z,0
2017-02-15T04:18:05.458Z,0
2017-02-15T04:19:05.473Z,0
2017-02-15T04:20:05.813Z,0
2017-02-15T04:21:05.878Z,0
2017-02-15T04:22:05.876Z,0
2017-02-15T04:23:05.835Z,0
2017-02-15T04:24:05.495Z,0
2017-02-15T04:25:05.852Z,0
2017-02-15T04:26:05.451Z,0
2017-02-15T04:27:05.572Z,0
2017-02-15T04:28:05.502Z,0
2017-02-15T04:29:05.515Z,0
2017-02-15T04:30:05.942Z,0
2017-02-15T04:31:05.934Z,0
2017-02-15T04:32:05.936Z,0
2017-02-15T04:33:05.888Z,0
2017-02-15T04:34:05.510Z,0
2017-02-15T04:35:05.962Z,0
2017-02-15T04:36:05.904Z,0
2017-02-15T04:37:05.967Z,0
2017-02-15T04:38:05.967Z,0
2017-02-15T04:39:05.925Z,0
2017-02-15T04:40:05.588Z,0
2017-02-15T04:41:05.952Z,0
2017-02-15T04:42:06.010Z,0
2017-02-15T04:43:06.048Z,0
2017-02-15T04:44:06.007Z,0
2017-02-15T04:45:05.574Z,0
2017-02-15T04:46:05.618Z,0
2017-02-15T04:47:05.977Z,0
2017-02-15T04:48:06.132Z,0
2017-02-15T04:49:05.988Z,0
2017-02-15T04:50:06.009Z,0
2017-02-15T04:51:05.611Z,0
2017-02-15T04:52:06.779Z,0
2017-02-15T04:53:05.672Z,0
2017-02-15T04:54:06.109Z,0
2017-02-15T04:55:06.090Z,0
2017-02-15T04:56:06.035Z,0
2017-02-15T04:57:06.037Z,0
2017-02-15T04:58:05.703Z,0
2017-02-15T04:59:06.045Z,0
2017-02-15T05:00:06.099Z,0
2017-02-15T05:01:06.114Z,0
2017-02-15T05:02:05.674Z,0
2017-02-15T05:03:06.118Z,0
2017-02-15T05:04:06.083Z,0
2017-02-15T05:05:06.196Z,0
2017-02-15T05:06:06.146Z,0
2017-02-15T05:07:06.391Z,0
2017-02-15T05:08:06.110Z,0
2017-02-15T05:09:05.816Z,0
2017-02-15T05:10:06.162Z,0
2017-02-15T05:11:06.119Z,0
2017-02-15T05:12:06.190Z,0
2017-02-15T05:13:05.760Z,0
2017-02-15T05:14:06.186Z,0
2017-02-15T05:15:06.145Z,0
2017-02-15T05:16:06.216Z,0
2017-02-15T05:17:06.170Z,0
2017-02-15T05:18:06.206Z,0
2017-02-15T05:19:05.819Z,0
2017-02-15T05:20:06.219Z,0
2017-02-15T05:21:06.476Z,0
2017-02-15T05:22:06.654Z,0
2017-02-15T05:23:05.904Z,0
2017-02-15T05:24:05.800Z,0
2017-02-15T05:25:05.956Z,0
2017-02-15T05:26:06.306Z,0
2017-02-15T05:27:06.268Z,0
2017-02-15T05:28:05.873Z,0
2017-02-15T05:29:06.288Z,0
2017-02-15T05:30:06.281Z,0
2017-02-15T05:31:05.948Z,0
2017-02-15T05:32:06.248Z,0
2017-02-15T05:33:05.859Z,0
2017-02-15T05:34:06.268Z,0
2017-02-15T05:35:06.316Z,0
2017-02-15T05:36:06.270Z,0
2017-02-15T05:37:05.499Z,0
2017-02-15T05:38:06.288Z,0
2017-02-15T05:39:06.350Z,0
2017-02-15T05:40:05.933Z,0
2017-02-15T05:41:06.295Z,0
2017-02-15T05:42:06.308Z,0
2017-02-15T05:43:06.318Z,0
2017-02-15T05:44:06.328Z,0
2017-02-15T05:45:05.976Z,0
2017-02-15T05:46:06.288Z,0
2017-02-15T05:47:06.389Z,0
2017-02-15T05:48:06.386Z,0
2017-02-15T05:49:06.351Z,0
2017-02-15T05:50:06.404Z,0
2017-02-15T05:51:06.071Z,0
2017-02-15T05:52:06.061Z,0
2017-02-15T05:53:06.071Z,0
2017-02-15T05:54:06.046Z,0
2017-02-15T05:55:05.989Z,0
2017-02-15T05:56:05.996Z,0
2017-02-15T05:57:06.409Z,0
2017-02-15T05:58:06.410Z,0
2017-02-15T05:59:06.468Z,0
2017-02-15T06:00:06.409Z,0
2017-02-15T06:01:06.491Z,0
2017-02-15T06:02:06.472Z,0
2017-02-15T06:03:06.034Z,0
2017-02-15T06:04:06.487Z,0
2017-02-15T06:05:06.503Z,0
2017-02-15T06:06:06.508Z,0
2017-02-15T06:07:06.511Z,0
2017-02-15T06:08:06.457Z,0
2017-02-15T06:09:06.519Z,0
2017-02-15T06:10:06.529Z,0
2017-02-15T06:11:06.140Z,0
2017-02-15T06:12:06.134Z,0
2017-02-15T06:13:06.095Z,0
2017-02-15T06:14:06.596Z,0
2017-02-15T06:15:06.116Z,4
2017-02-15T06:16:06.557Z,0
2017-02-15T06:17:06.566Z,0
2017-02-15T06:18:06.525Z,0
2017-02-15T06:19:06.589Z,4
2017-02-15T06:20:06.144Z,0
2017-02-15T06:21:06.536Z,4
2017-02-15T06:22:06.564Z,0
2017-02-15T06:23:06.202Z,4
2017-02-15T06:24:06.615Z,4
2017-02-15T06:25:06.913Z,4
2017-02-15T06:26:05.833Z,4
2017-02-15T06:27:06.569Z,8
2017-02-15T06:28:06.190Z,8
2017-02-15T06:29:06.715Z,8
2017-02-15T06:30:06.204Z,8
2017-02-15T06:31:06.597Z,12
2017-02-15T06:32:06.607Z,12
2017-02-15T06:33:06.276Z,16
2017-02-15T06:34:06.606Z,16
2017-02-15T06:35:06.686Z,16
2017-02-15T06:36:06.879Z,20
2017-02-15T06:37:06.636Z,24
2017-02-15T06:38:06.762Z,24
2017-02-15T06:39:06.651Z,28
2017-02-15T06:40:06.715Z,28
2017-02-15T06:41:06.274Z,36
2017-02-15T06:42:05.942Z,36
2017-02-15T06:43:06.279Z,40
2017-02-15T06:44:06.829Z,44
2017-02-15T06:45:06.282Z,48
2017-02-15T06:46:06.757Z,52
2017-02-15T06:47:06.708Z,56
2017-02-15T06:48:06.695Z,60
2017-02-15T06:49:06.708Z,64
2017-02-15T06:50:06.767Z,72
2017-02-15T06:51:06.805Z,76
2017-02-15T06:52:06.824Z,80
2017-02-15T06:53:06.784Z,88
2017-02-15T06:54:06.338Z,92
2017-02-15T06:55:06.785Z,96
2017-02-15T06:56:06.470Z,108
2017-02-15T06:57:06.418Z,112
2017-02-15T06:58:06.809Z,120
2017-02-15T06:59:06.464Z,124
2017-02-15T07:00:06.937Z,132
2017-02-15T07:01:06.775Z,140
2017-02-15T07:02:06.902Z,148
2017-02-15T07:03:06.400Z,152
2017-02-15T07:04:06.888Z,164
2017-02-15T07:05:06.859Z,168
2017-02-15T07:06:06.803Z,176
2017-02-15T07:07:06.829Z,184
2017-02-15T07:08:06.471Z,192
2017-02-15T07:09:06.932Z,200
2017-02-15T07:10:06.875Z,208
2017-02-15T07:11:06.931Z,216
2017-02-15T07:12:06.512Z,224
2017-02-15T07:13:06.850Z,236
2017-02-15T07:14:06.864Z,240
2017-02-15T07:15:06.953Z,248
2017-02-15T07:16:06.913Z,260
2017-02-15T07:17:06.540Z,264
2017-02-15T07:18:06.929Z,272
2017-02-15T07:19:06.893Z,280
2017-02-15T07:20:06.895Z,288
2017-02-15T07:21:06.891Z,296
2017-02-15T07:22:06.526Z,304
2017-02-15T07:23:06.906Z,312
2017-02-15T07:24:06.969Z,320
2017-02-15T07:25:06.573Z,324
2017-02-15T07:26:06.922Z,336
2017-02-15T07:27:06.600Z,344
2017-02-15T07:28:06.943Z,352
2017-02-15T07:29:07.060Z,360
2017-02-15T07:30:07.008Z,364
2017-02-15T07:31:07.008Z,372
2017-02-15T07:32:06.614Z,384
2017-02-15T07:33:06.969Z,392
2017-02-15T07:34:07.035Z,396
2017-02-15T07:35:06.587Z,404
2017-02-15T07:36:06.608Z,412
2017-02-15T07:37:06.600Z,420
2017-02-15T07:38:07.006Z,428
2017-02-15T07:39:07.013Z,436
2017-02-15T07:40:06.638Z,444
2017-02-15T07:41:07.033Z,452
2017-02-15T07:42:06.693Z,456
2017-02-15T07:43:07.075Z,464
2017-02-15T07:44:07.092Z,476
2017-02-15T07:45:07.066Z,480
2017-02-15T07:46:07.205Z,488
2017-02-15T07:47:06.672Z,496
2017-02-15T07:48:06.380Z,504
2017-02-15T07:49:07.063Z,512
2017-02-15T07:50:07.120Z,520
2017-02-15T07:51:07.087Z,528
2017-02-15T07:52:07.141Z,536
2017-02-15T07:53:07.102Z,544
2017-02-15T07:54:07.145Z,548
2017-02-15T07:55:07.114Z,552
2017-02-15T07:56:07.104Z,560
2017-02-15T07:57:07.231Z,568
2017-02-15T07:58:06.725Z,576
2017-02-15T07:59:07.231Z,584
2017-02-15T08:00:07.143Z,592
2017-02-15T08:01:07.201Z,596
2017-02-15T08:02:07.163Z,608
2017-02-15T08:03:07.161Z,612
2017-02-15T08:04:07.206Z,620
2017-02-15T08:05:07.171Z,632
2017-02-15T08:06:07.182Z,636
2017-02-15T08:07:07.188Z,648
2017-02-15T08:08:07.302Z,652
2017-02-15T08:09:07.248Z,660
2017-02-15T08:10:06.811Z,672
2017-02-15T08:11:06.814Z,676
2017-02-15T08:12:07.325Z,692
2017-02-15T08:13:07.233Z,696
2017-02-15T08:14:07.242Z,708
2017-02-15T08:15:07.310Z,720
2017-02-15T08:16:06.945Z,724
2017-02-15T08:17:06.859Z,740
2017-02-15T08:18:07.407Z,752
2017-02-15T08:19:07.338Z,760
2017-02-15T08:20:07.274Z,776
2017-02-15T08:21:07.277Z,792
2017-02-15T08:22:06.952Z,804
2017-02-15T08:23:07.291Z,812
2017-02-15T08:24:07.344Z,828
2017-02-15T08:25:06.520Z,836
2017-02-15T08:26:06.956Z,844
2017-02-15T08:27:07.313Z,856
2017-02-15T08:28:07.397Z,880
2017-02-15T08:29:06.958Z,932
2017-02-15T08:30:07.418Z,988
2017-02-15T08:31:07.336Z,1068
2017-02-15T08:32:07.347Z,1188
2017-02-15T08:33:07.662Z,1392
2017-02-15T08:34:07.071Z,2048
2017-02-15T08:35:07.378Z,4592
2017-02-15T08:36:07.381Z,6816
2017-02-15T08:37:07.045Z,7284
2017-02-15T08:38:07.499Z,7524
2017-02-15T08:39:07.103Z,7628
2017-02-15T08:40:08.013Z,7704
2017-02-15T08:41:06.632Z,7656
2017-02-15T08:42:07.533Z,7804
2017-02-15T08:43:07.059Z,7912
2017-02-15T08:44:07.447Z,7828
2017-02-15T08:45:07.497Z,7608
2017-02-15T08:46:07.107Z,7272
2017-02-15T08:47:07.465Z,7048
2017-02-15T08:48:07.218Z,7080
2017-02-15T08:49:07.504Z,7528
2017-02-15T08:50:07.506Z,7724
2017-02-15T08:51:07.432Z,8020
2017-02-15T08:52:07.927Z,8200
2017-02-15T08:53:07.569Z,8080
2017-02-15T08:54:07.254Z,8132
2017-02-15T08:55:07.563Z,7800
2017-02-15T08:56:07.606Z,7820
2017-02-15T08:57:07.569Z,8288
2017-02-15T08:58:07.632Z,8048
2017-02-15T08:59:07.638Z,8184
2017-02-15T09:00:07.611Z,8128
2017-02-15T09:01:07.639Z,8100
2017-02-15T09:02:07.630Z,8032
2017-02-15T09:03:07.700Z,7952
2017-02-15T09:04:07.760Z,7876
2017-02-15T09:05:07.699Z,8076
2017-02-15T09:06:07.776Z,8176
2017-02-15T09:07:07.744Z,7772
2017-02-15T09:08:07.791Z,7648
2017-02-15T09:09:07.757Z,7852
2017-02-15T09:10:06.920Z,7988
2017-02-15T09:11:07.735Z,8080
2017-02-15T09:12:07.397Z,8072
2017-02-15T09:13:07.846Z,8088
2017-02-15T09:14:07.510Z,8192
2017-02-15T09:15:07.775Z,8180
2017-02-15T09:16:07.384Z,8196
2017-02-15T09:17:07.804Z,8520
2017-02-15T09:18:07.412Z,8828
2017-02-15T09:19:07.478Z,9036
2017-02-15T09:20:07.884Z,9156
2017-02-15T09:21:07.884Z,8976
2017-02-15T09:22:07.462Z,9016
2017-02-15T09:23:07.872Z,8832
2017-02-15T09:24:07.938Z,9196
2017-02-15T09:25:07.914Z,9900
2017-02-15T09:26:07.930Z,9940
2017-02-15T09:27:07.965Z,10112
2017-02-15T09:28:07.574Z,10172
2017-02-15T09:29:07.983Z,10252
2017-02-15T09:30:07.953Z,10944
2017-02-15T09:31:07.998Z,11060
2017-02-15T09:32:08.056Z,11720
2017-02-15T09:33:08.228Z,10932
2017-02-15T09:34:07.650Z,9968
2017-02-15T09:35:08.001Z,9988
2017-02-15T09:36:08.070Z,9592
2017-02-15T09:37:07.778Z,10868
2017-02-15T09:38:08.081Z,12080
2017-02-15T09:39:08.102Z,12184
2017-02-15T09:40:08.051Z,10540
2017-02-15T09:41:07.737Z,9460
2017-02-15T09:42:08.378Z,10792
2017-02-15T09:43:08.135Z,12516
2017-02-15T09:44:07.712Z,12296
2017-02-15T09:45:08.127Z,10924
2017-02-15T09:46:08.277Z,10016
2017-02-15T09:47:08.584Z,11548
2017-02-15T09:48:08.191Z,12952
2017-02-15T09:49:08.211Z,13008
2017-02-15T09:50:07.790Z,12776
2017-02-15T09:51:08.258Z,12660
2017-02-15T09:52:08.193Z,13068
2017-02-15T09:53:08.248Z,12736
2017-02-15T09:54:07.876Z,12832
2017-02-15T09:55:07.872Z,12720
2017-02-15T09:56:08.244Z,12956
2017-02-15T09:57:08.358Z,12236
2017-02-15T09:58:07.952Z,12148
2017-02-15T09:59:08.307Z,11280
2017-02-15T10:00:08.273Z,6384
2017-02-15T10:01:08.288Z,2308
2017-02-15T10:02:08.279Z,1880
2017-02-15T10:03:07.960Z,1820
2017-02-15T10:04:08.304Z,1756
2017-02-15T10:05:07.909Z,1720
2017-02-15T10:06:08.362Z,1672
2017-02-15T10:07:08.442Z,1648
2017-02-15T10:08:08.401Z,1620
2017-02-15T10:09:08.448Z,1588
2017-02-15T10:10:08.415Z,1572
2017-02-15T10:11:08.424Z,1560
2017-02-15T10:12:09.319Z,1540
2017-02-15T10:13:07.973Z,1520
2017-02-15T10:14:08.485Z,1500
2017-02-15T10:15:08.438Z,1480
2017-02-15T10:16:08.437Z,1488
2017-02-15T10:17:08.002Z,1460
2017-02-15T10:18:08.416Z,1420
2017-02-15T10:19:08.553Z,1408
2017-02-15T10:20:08.548Z,1400
2017-02-15T10:21:08.043Z,1384
2017-02-15T10:22:08.394Z,1416
2017-02-15T10:23:08.511Z,1440
2017-02-15T10:24:08.508Z,1420
2017-02-15T10:25:08.513Z,1396
2017-02-15T10:26:08.529Z,1384
2017-02-15T10:27:08.174Z,1396
2017-02-15T10:28:08.503Z,1392
2017-02-15T10:29:07.718Z,1376
2017-02-15T10:30:08.504Z,1372
2017-02-15T10:31:08.563Z,1360
2017-02-15T10:32:08.863Z,1352
2017-02-15T10:33:08.682Z,1348
2017-02-15T10:34:08.183Z,1324
2017-02-15T10:35:08.631Z,1316
2017-02-15T10:36:08.595Z,1228
2017-02-15T10:37:07.813Z,1212
2017-02-15T10:38:08.216Z,1172
2017-02-15T10:39:08.235Z,1188
2017-02-15T10:40:08.682Z,1172
2017-02-15T10:41:08.238Z,1144
2017-02-15T10:42:08.608Z,1144
2017-02-15T10:43:08.616Z,1140
2017-02-15T10:44:08.656Z,1124
2017-02-15T10:45:08.629Z,1116
2017-02-15T10:46:08.271Z,1104
2017-02-15T10:47:08.692Z,1080
2017-02-15T10:48:08.796Z,1076
2017-02-15T10:49:08.684Z,1068
2017-02-15T10:50:08.246Z,1056
2017-02-15T10:51:08.709Z,1048
2017-02-15T10:52:08.325Z,1032
2017-02-15T10:53:08.770Z,1028
2017-02-15T10:54:08.291Z,1020
2017-02-15T10:55:08.310Z,1012
2017-02-15T10:56:08.687Z,984
2017-02-15T10:57:08.771Z,976
2017-02-15T10:58:08.427Z,960
2017-02-15T10:59:08.712Z,956
2017-02-15T11:00:08.385Z,956
2017-02-15T11:01:08.377Z,948
2017-02-15T11:02:08.339Z,936
2017-02-15T11:03:08.452Z,936
2017-02-15T11:04:08.425Z,936
2017-02-15T11:05:08.756Z,936
2017-02-15T11:06:08.445Z,936
2017-02-15T11:07:08.764Z,924
2017-02-15T11:08:08.778Z,932
2017-02-15T11:09:08.389Z,924
2017-02-15T11:10:08.838Z,908
2017-02-15T11:11:08.857Z,904
2017-02-15T11:12:08.553Z,892
2017-02-15T11:13:08.876Z,892
2017-02-15T11:14:08.875Z,892
2017-02-15T11:15:09.236Z,872
2017-02-15T11:16:08.849Z,864
2017-02-15T11:17:08.892Z,856
2017-02-15T11:18:08.839Z,848
2017-02-15T11:19:08.066Z,848
2017-02-15T11:20:08.922Z,852
2017-02-15T11:21:08.534Z,840
2017-02-15T11:22:08.966Z,844
2017-02-15T11:23:08.528Z,832
2017-02-15T11:24:08.906Z,808
2017-02-15T11:25:08.498Z,804
2017-02-15T11:26:08.901Z,780
2017-02-15T11:27:08.970Z,784
2017-02-15T11:28:08.226Z,776
2017-02-15T11:29:08.545Z,792
2017-02-15T11:30:08.991Z,796
2017-02-15T11:31:08.549Z,800
2017-02-15T11:32:08.675Z,792
2017-02-15T11:33:08.204Z,780
2017-02-15T11:34:08.964Z,776
2017-02-15T11:35:09.024Z,768
2017-02-15T11:36:08.570Z,772
2017-02-15T11:37:09.084Z,764
2017-02-15T11:38:08.992Z,760
2017-02-15T11:39:09.043Z,756
2017-02-15T11:40:08.673Z,740
2017-02-15T11:41:09.047Z,740
2017-02-15T11:42:08.221Z,736
2017-02-15T11:43:09.063Z,736
2017-02-15T11:44:08.702Z,736
2017-02-15T11:45:09.397Z,736
2017-02-15T11:46:08.706Z,736
2017-02-15T11:47:09.595Z,736
2017-02-15T11:48:09.086Z,736
2017-02-15T11:49:09.202Z,744
2017-02-15T11:50:09.165Z,752
2017-02-15T11:51:08.725Z,748
2017-02-15T11:52:08.704Z,748
2017-02-15T11:53:08.300Z,748
2017-02-15T11:54:09.147Z,756
2017-02-15T11:55:09.091Z,756
2017-02-15T11:56:08.383Z,732
2017-02-15T11:57:09.134Z,756
2017-02-15T11:58:09.177Z,752
2017-02-15T11:59:09.166Z,756
2017-02-15T12:00:09.141Z,756
2017-02-15T12:01:09.262Z,748
2017-02-15T12:02:09.151Z,744
2017-02-15T12:03:09.155Z,744
2017-02-15T12:04:08.376Z,748
2017-02-15T12:05:09.160Z,744
2017-02-15T12:06:09.339Z,744
2017-02-15T12:07:09.168Z,748
2017-02-15T12:08:08.902Z,740
2017-02-15T12:09:09.536Z,740
2017-02-15T12:10:08.857Z,732
2017-02-15T12:11:09.316Z,732
2017-02-15T12:12:09.219Z,704
2017-02-15T12:13:09.270Z,688
2017-02-15T12:14:09.218Z,712
2017-02-15T12:15:09.325Z,708
2017-02-15T12:16:08.883Z,708
2017-02-15T12:17:09.240Z,704
2017-02-15T12:18:08.900Z,684
2017-02-15T12:19:09.314Z,692
2017-02-15T12:20:09.269Z,676
2017-02-15T12:21:08.989Z,684
2017-02-15T12:22:09.337Z,680
2017-02-15T12:23:09.401Z,676
2017-02-15T12:24:09.329Z,664
2017-02-15T12:25:09.322Z,664
2017-02-15T12:26:08.958Z,660
2017-02-15T12:27:08.907Z,660
2017-02-15T12:28:09.358Z,652
2017-02-15T12:29:09.365Z,648
2017-02-15T12:30:09.377Z,648
2017-02-15T12:31:08.986Z,644
2017-02-15T12:32:09.008Z,644
2017-02-15T12:33:09.405Z,640
2017-02-15T12:34:08.968Z,636
2017-02-15T12:35:08.958Z,628
2017-02-15T12:36:08.623Z,624
2017-02-15T12:37:08.593Z,608
2017-02-15T12:38:09.481Z,596
2017-02-15T12:39:09.037Z,584
2017-02-15T12:40:09.518Z,572
2017-02-15T12:41:09.394Z,564
2017-02-15T12:42:09.411Z,564
2017-02-15T12:43:09.458Z,560
2017-02-15T12:44:09.428Z,556
2017-02-15T12:45:08.653Z,560
2017-02-15T12:46:09.532Z,560
2017-02-15T12:47:09.437Z,560
2017-02-15T12:48:09.455Z,560
2017-02-15T12:49:09.599Z,556
2017-02-15T12:50:09.533Z,560
2017-02-15T12:51:09.154Z,560
2017-02-15T12:52:08.730Z,556
2017-02-15T12:53:09.479Z,552
2017-02-15T12:54:09.548Z,556
2017-02-15T12:55:09.203Z,556
2017-02-15T12:56:09.663Z,556
2017-02-15T12:57:09.527Z,552
2017-02-15T12:58:09.572Z,556
2017-02-15T12:59:09.170Z,556
2017-02-15T13:00:09.197Z,552
2017-02-15T13:01:09.133Z,552
2017-02-15T13:02:09.545Z,556
2017-02-15T13:03:09.271Z,556
2017-02-15T13:04:08.757Z,552
2017-02-15T13:05:09.723Z,556
2017-02-15T13:06:09.159Z,556
2017-02-15T13:07:09.202Z,560
2017-02-15T13:08:09.177Z,560
2017-02-15T13:09:09.599Z,560
2017-02-15T13:10:09.640Z,556
2017-02-15T13:11:09.603Z,560
2017-02-15T13:12:09.203Z,564
2017-02-15T13:13:09.664Z,564
2017-02-15T13:14:09.327Z,564
2017-02-15T13:15:09.678Z,568
2017-02-15T13:16:09.888Z,572
2017-02-15T13:17:09.695Z,568
2017-02-15T13:18:09.690Z,576
2017-02-15T13:19:09.711Z,576
2017-02-15T13:20:09.649Z,576
2017-02-15T13:21:09.712Z,588
2017-02-15T13:22:09.709Z,596
2017-02-15T13:23:09.491Z,596
2017-02-15T13:24:09.745Z,604
2017-02-15T13:25:09.698Z,612
2017-02-15T13:26:09.786Z,636
2017-02-15T13:27:09.759Z,676
2017-02-15T13:28:09.762Z,804
2017-02-15T13:29:09.421Z,864
2017-02-15T13:30:09.780Z,740
2017-02-15T13:31:09.772Z,712
2017-02-15T13:32:09.739Z,820
2017-02-15T13:33:09.790Z,1576
2017-02-15T13:34:09.753Z,1620
2017-02-15T13:35:09.214Z,1752
2017-02-15T13:36:09.866Z,5296
2017-02-15T13:37:09.773Z,6148
2017-02-15T13:38:09.779Z,3556
2017-02-15T13:39:09.390Z,2164
2017-02-15T13:40:09.697Z,2008
2017-02-15T13:41:09.453Z,1800
2017-02-15T13:42:09.062Z,1368
2017-02-15T13:43:09.404Z,1352
2017-02-15T13:44:09.859Z,3352
2017-02-15T13:45:09.889Z,5020
2017-02-15T13:46:09.498Z,6612
2017-02-15T13:47:09.113Z,6208
2017-02-15T13:48:09.902Z,1880
2017-02-15T13:49:09.905Z,1532
2017-02-15T13:50:09.513Z,1992
2017-02-15T13:51:09.868Z,1824
2017-02-15T13:52:09.966Z,1744
2017-02-15T13:53:09.926Z,4260
2017-02-15T13:54:09.881Z,4300
2017-02-15T13:55:09.936Z,2920
2017-02-15T13:56:09.606Z,5672
2017-02-15T13:57:09.963Z,5756
2017-02-15T13:58:09.545Z,2584
2017-02-15T13:59:09.974Z,912
2017-02-15T14:00:09.927Z,672
2017-02-15T14:01:09.946Z,596
2017-02-15T14:02:10.007Z,576
2017-02-15T14:03:09.954Z,564
2017-02-15T14:04:09.178Z,552
2017-02-15T14:05:09.974Z,544
2017-02-15T14:06:09.981Z,536